Time;durP1;ratioP1;P1;durP2;ratioP2;P2;SDS_P1;SDS_P2;PMS_P1;PMS_P2;Temp;Humidity;BMP_temperature;BMP_pressure;BME280_temperature;BME280_humidity;BME280_pressure;Samples;Min_cycle;Max_cycle;Signal;HPM_P1;HPM_P2
2023/02/19 00:04:58;;;;;;;5.60;4.30;;;;;;;6.07;89.58;98584.38;221623;1274;22595;-72
2023/02/19 00:10:00;;;;;;;2.60;2.20;;;;;;;6.08;89.64;98577.73;221762;1275;25333;-73
2023/02/19 00:15:08;;;;;;;3.30;2.40;;;;;;;6.07;89.53;98580.58;221698;1276;22648;-73
2023/02/19 00:20:10;;;;;;;3.80;2.90;;;;;;;6.04;89.81;98584.90;221754;1276;22544;-73
2023/02/19 00:25:13;;;;;;;3.70;2.10;;;;;;;6.03;89.76;98583.31;221675;1276;22533;-73
2023/02/19 00:30:18;;;;;;;4.10;3.70;;;;;;;6.00;89.84;98583.94;221660;1276;23791;-73
2023/02/19 00:35:23;;;;;;;5.90;4.20;;;;;;;5.96;90.01;98585.02;221618;1271;24725;-72
2023/02/19 00:40:26;;;;;;;6.30;5.10;;;;;;;5.93;90.08;98574.20;221789;1274;22526;-73
2023/02/19 00:45:28;;;;;;;6.00;5.40;;;;;;;5.91;90.01;98579.33;221583;1276;25435;-73
2023/02/19 00:50:30;;;;;;;7.20;6.50;;;;;;;5.91;90.32;98580.17;221585;1276;22527;-73
2023/02/19 00:55:32;;;;;;;8.60;7.70;;;;;;;5.91;90.30;98580.88;221637;1275;22657;-72
2023/02/19 01:00:34;;;;;;;8.50;7.60;;;;;;;5.91;90.20;98579.89;221790;1273;22589;-72
2023/02/19 01:05:36;;;;;;;9.00;8.10;;;;;;;5.90;90.43;98570.67;221626;1271;22522;-73
2023/02/19 01:10:39;;;;;;;7.30;6.40;;;;;;;5.88;90.42;98565.24;221693;1271;22532;-73
2023/02/19 01:15:42;;;;;;;7.70;6.00;;;;;;;5.87;90.39;98560.08;221718;1276;25713;-72
2023/02/19 01:20:47;;;;;;;8.70;6.50;;;;;;;5.87;90.71;98562.94;221626;1276;22543;-72
2023/02/19 01:25:50;;;;;;;6.00;5.20;;;;;;;5.90;90.73;98558.09;221621;1276;22552;-72
2023/02/19 01:30:52;;;;;;;5.50;4.30;;;;;;;5.91;90.71;98548.06;221691;1258;22742;-72
2023/02/19 01:35:58;;;;;;;4.30;3.90;;;;;;;5.88;90.45;98539.38;221586;1274;22555;-73
2023/02/19 01:41:03;;;;;;;4.10;3.70;;;;;;;5.87;90.70;98528.32;221724;1274;22537;-72
2023/02/19 01:46:06;;;;;;;4.00;3.30;;;;;;;5.86;90.75;98528.25;221768;1271;26386;-72
2023/02/19 01:51:11;;;;;;;3.20;2.80;;;;;;;5.88;91.07;98519.01;221708;1253;25243;-72
2023/02/19 01:56:16;;;;;;;3.30;3.00;;;;;;;5.86;90.88;98511.67;221760;1276;25400;-72
2023/02/19 02:01:18;;;;;;;4.30;3.80;;;;;;;5.84;91.04;98511.27;221795;1272;22540;-73
2023/02/19 02:06:32;;;;;;;4.10;3.70;;;;;;;5.86;91.30;98508.70;221745;1274;25416;-72
2023/02/19 02:11:35;;;;;;;4.50;4.00;;;;;;;5.84;91.15;98502.23;221803;1274;22696;-72
2023/02/19 02:16:53;;;;;;;5.30;4.80;;;;;;;5.83;91.01;98499.94;221888;1276;22692;-73
2023/02/19 02:22:05;;;;;;;5.80;5.20;;;;;;;5.82;91.07;98499.31;221778;1275;24208;-72
2023/02/19 02:27:21;;;;;;;7.90;6.30;;;;;;;5.82;91.29;98489.02;221790;1270;22538;-72
2023/02/19 02:32:32;;;;;;;9.30;7.40;;;;;;;5.79;91.14;98480.06;221767;1274;23934;-72
2023/02/19 02:37:37;;;;;;;9.50;8.00;;;;;;;5.77;91.09;98479.41;221820;1276;24299;-72
2023/02/19 02:42:42;;;;;;;12.40;9.40;;;;;;;5.76;91.13;98474.30;221736;1275;25380;-72
2023/02/19 02:47:55;;;;;;;13.10;8.40;;;;;;;5.76;91.24;98463.09;221690;1276;22772;-72
2023/02/19 02:58:44;;;;;;;7.00;4.90;;;;;;;5.76;91.23;98448.29;221754;1276;22527;-72
2023/02/19 03:03:53;;;;;;;4.70;4.00;;;;;;;5.75;90.97;98441.08;221750;1275;25401;-73
2023/02/19 03:09:08;;;;;;;5.00;4.40;;;;;;;5.73;91.13;98435.84;221695;1273;25444;-73
2023/02/19 03:19:51;;;;;;;4.70;4.30;;;;;;;5.75;91.29;98437.05;221888;1269;24878;-72
2023/02/19 03:30:32;;;;;;;5.40;4.30;;;;;;;5.78;91.21;98447.20;221808;1276;24253;-73
2023/02/19 03:35:48;;;;;;;5.10;4.50;;;;;;;5.77;91.39;98445.02;221855;1276;22691;-72
2023/02/19 03:41:13;;;;;;;5.60;5.10;;;;;;;5.76;91.34;98450.48;221729;1274;24839;-72
2023/02/19 03:46:22;;;;;;;5.80;5.20;;;;;;;5.77;91.47;98447.11;221889;1276;22597;-73
2023/02/19 03:51:43;;;;;;;5.40;4.70;;;;;;;5.78;91.65;98442.65;221967;1273;22540;-73
2023/02/19 03:57:04;;;;;;;6.00;5.40;;;;;;;5.79;91.59;98438.15;221823;1274;22525;-72
2023/02/19 04:02:35;;;;;;;6.10;5.50;;;;;;;5.82;91.67;98427.36;221769;1272;22529;-73
2023/02/19 04:07:43;;;;;;;7.60;6.50;;;;;;;5.82;91.57;98415.95;221854;1276;22541;-72
2023/02/19 04:12:58;;;;;;;6.50;5.80;;;;;;;5.83;91.59;98415.86;221809;1276;22523;-72
2023/02/19 04:18:07;;;;;;;6.80;5.40;;;;;;;5.83;91.79;98414.48;222079;1276;22750;-72
2023/02/19 04:23:15;;;;;;;6.80;6.00;;;;;;;5.82;91.73;98402.84;221695;1275;22549;-72
2023/02/19 04:28:18;;;;;;;6.40;5.60;;;;;;;5.80;91.78;98402.84;221717;1276;22554;-73
2023/02/19 04:33:20;;;;;;;6.90;5.40;;;;;;;5.79;91.80;98398.42;221854;1276;22559;-73
2023/02/19 04:38:23;;;;;;;7.20;5.50;;;;;;;5.79;91.75;98389.56;221692;1276;22736;-72
2023/02/19 04:43:28;;;;;;;6.10;5.10;;;;;;;5.77;91.88;98373.20;221740;1276;22557;-73
2023/02/19 04:48:31;;;;;;;4.50;3.70;;;;;;;5.75;91.89;98357.98;221867;1276;22615;-72
2023/02/19 04:53:35;;;;;;;4.00;3.40;;;;;;;5.75;92.12;98342.98;221785;1276;26580;-71
2023/02/19 04:58:37;;;;;;;3.10;2.80;;;;;;;5.76;92.13;98342.69;221594;1276;24304;-72
2023/02/19 05:03:40;;;;;;;3.30;3.00;;;;;;;5.77;91.93;98328.11;221662;1276;25487;-76
2023/02/19 05:08:43;;;;;;;3.50;3.20;;;;;;;5.78;92.21;98316.11;221565;1276;22614;-72
2023/02/19 05:13:45;;;;;;;3.20;2.90;;;;;;;5.81;92.22;98317.29;221677;1274;22566;-72
2023/02/19 05:18:47;;;;;;;4.10;3.20;;;;;;;5.86;92.35;98315.75;221437;1276;23646;-73
2023/02/19 05:23:50;;;;;;;3.40;3.10;;;;;;;5.90;92.24;98312.35;221839;1273;22666;-73
2023/02/19 05:28:52;;;;;;;3.40;3.10;;;;;;;5.93;92.40;98303.07;221820;1274;23945;-74
2023/02/19 05:33:55;;;;;;;4.90;3.80;;;;;;;5.94;92.23;98305.74;221680;1276;22542;-73
2023/02/19 05:38:57;;;;;;;6.40;4.60;;;;;;;5.94;91.91;98312.73;221806;1274;22644;-73
2023/02/19 05:44:00;;;;;;;5.70;5.00;;;;;;;5.94;92.11;98314.89;221774;1274;22531;-73
2023/02/19 05:49:03;;;;;;;7.60;6.70;;;;;;;5.96;92.08;98323.38;221862;1275;22678;-73
2023/02/19 05:54:05;;;;;;;10.40;7.50;;;;;;;6.01;92.45;98342.27;221639;1276;25445;-73
2023/02/19 05:59:14;;;;;;;8.10;6.40;;;;;;;6.05;92.42;98344.95;221760;1274;22536;-72
2023/02/19 06:04:18;;;;;;;9.30;8.00;;;;;;;6.06;92.16;98344.13;221777;1272;25288;-71
2023/02/19 06:09:20;;;;;;;8.00;7.20;;;;;;;6.06;92.24;98331.05;221762;1276;22605;-73
2023/02/19 06:14:22;;;;;;;9.40;7.70;;;;;;;6.06;92.47;98328.27;221711;1276;24291;-73
2023/02/19 06:19:24;;;;;;;11.90;9.50;;;;;;;6.05;92.04;98322.77;221702;1274;22675;-72
2023/02/19 06:24:27;;;;;;;12.80;10.30;;;;;;;6.06;92.30;98324.95;221845;1276;22666;-73
2023/02/19 06:29:31;;;;;;;10.10;9.00;;;;;;;6.04;92.09;98329.35;221792;1276;23146;-72
2023/02/19 06:34:34;;;;;;;10.60;9.50;;;;;;;6.03;92.05;98322.08;221967;1270;24010;-71
2023/02/19 06:39:37;;;;;;;12.10;9.80;;;;;;;6.03;92.12;98326.86;221894;1274;22893;-72
2023/02/19 06:44:40;;;;;;;12.30;10.20;;;;;;;6.03;92.42;98323.67;221573;1276;23138;-72
2023/02/19 06:49:43;;;;;;;11.60;9.30;;;;;;;6.06;92.31;98320.59;221835;1275;24198;-72
2023/02/19 06:54:46;;;;;;;9.40;8.50;;;;;;;6.10;92.25;98322.36;222028;1275;24285;-72
2023/02/19 06:59:49;;;;;;;8.70;7.80;;;;;;;6.14;92.37;98323.27;221785;1276;25346;-72
2023/02/19 07:04:51;;;;;;;7.90;7.10;;;;;;;6.16;92.22;98315.00;221888;1276;22567;-72
2023/02/19 07:09:53;;;;;;;8.40;7.60;;;;;;;6.17;92.33;98312.60;221853;1276;22615;-72
2023/02/19 07:15:00;;;;;;;10.30;9.20;;;;;;;6.22;92.47;98311.60;221850;1276;22770;-73
2023/02/19 07:20:03;;;;;;;9.30;8.30;;;;;;;6.30;92.69;98309.25;221858;1276;22595;-72
2023/02/19 07:25:05;;;;;;;10.70;9.60;;;;;;;6.38;92.67;98309.80;221871;1270;25419;-73
2023/02/19 07:30:09;;;;;;;11.20;10.00;;;;;;;6.45;92.56;98303.00;221744;1276;22531;-73
2023/02/19 07:35:11;;;;;;;11.30;10.10;;;;;;;6.52;92.72;98297.80;221783;1275;22595;-73
2023/02/19 07:40:14;;;;;;;9.90;8.90;;;;;;;6.56;92.70;98280.98;221795;1275;25278;-73
2023/02/19 07:45:16;;;;;;;9.70;8.70;;;;;;;6.61;92.64;98274.55;221764;1276;24316;-74
2023/02/19 07:50:19;;;;;;;8.60;7.80;;;;;;;6.66;92.66;98263.45;221759;1276;23226;-72
2023/02/19 07:55:24;;;;;;;9.40;8.20;;;;;;;6.70;92.60;98265.13;221572;1276;22619;-73
2023/02/19 08:00:28;;;;;;;10.40;9.30;;;;;;;6.72;92.71;98265.56;221758;1276;22529;-72
2023/02/19 08:05:37;;;;;;;10.70;9.10;;;;;;;6.78;92.78;98266.65;221818;1276;25412;-73
2023/02/19 08:16:01;;;;;;;8.70;7.60;;;;;;;6.94;92.34;98266.75;221897;1276;23365;-72
2023/02/19 08:21:20;;;;;;;9.90;8.10;;;;;;;7.03;92.77;98272.54;222120;1276;24422;-72
2023/02/19 08:26:22;;;;;;;11.20;8.40;;;;;;;7.12;92.51;98275.67;221706;1273;24265;-74
2023/02/19 08:31:25;;;;;;;8.60;7.70;;;;;;;7.16;92.51;98277.30;221737;1275;22566;-73
2023/02/19 08:36:29;;;;;;;8.40;7.50;;;;;;;7.17;92.30;98286.65;222067;1276;22565;-72
2023/02/19 08:41:31;;;;;;;9.50;8.30;;;;;;;7.15;92.41;98296.16;221618;1276;22557;-73
2023/02/19 08:46:33;;;;;;;10.00;8.90;;;;;;;7.15;92.53;98299.09;221815;1275;25444;-73
2023/02/19 08:51:40;;;;;;;11.20;8.80;;;;;;;7.15;92.74;98303.80;221637;1276;25407;-71
2023/02/19 08:56:43;;;;;;;4.70;3.70;;;;;;;7.14;92.51;98300.10;221809;1275;22664;-72
2023/02/19 09:01:45;;;;;;;6.10;4.90;;;;;;;7.07;92.35;98304.88;221756;1276;25358;-73
2023/02/19 09:06:48;;;;;;;7.20;6.50;;;;;;;7.02;92.37;98305.04;221685;1273;25353;-73
2023/02/19 09:11:50;;;;;;;7.50;6.70;;;;;;;6.98;92.63;98307.73;221779;1274;22535;-73
2023/02/19 09:16:52;;;;;;;6.80;6.00;;;;;;;6.98;92.43;98311.48;221827;1276;26440;-73
2023/02/19 09:21:54;;;;;;;7.10;5.80;;;;;;;6.94;92.29;98320.13;221765;1276;24197;-73
2023/02/19 09:26:59;;;;;;;6.70;5.30;;;;;;;6.85;92.17;98332.68;221790;1273;24219;-73
2023/02/19 09:32:04;;;;;;;4.10;2.20;;;;;;;6.72;91.72;98335.89;221815;1276;24579;-74
2023/02/19 09:37:07;;;;;;;3.80;3.10;;;;;;;6.58;91.12;98336.91;221807;1276;24249;-73
2023/02/19 09:42:16;;;;;;;5.60;4.30;;;;;;;6.43;91.25;98339.41;221784;1270;25337;-72
2023/02/19 09:47:27;;;;;;;5.10;3.40;;;;;;;6.33;91.46;98354.89;221804;1276;22533;-72
2023/02/19 09:52:37;;;;;;;4.80;3.80;;;;;;;6.26;91.57;98367.73;221631;1276;25364;-72
2023/02/19 09:57:42;;;;;;;3.80;2.60;;;;;;;6.19;91.09;98372.01;221738;1276;23205;-71
2023/02/19 10:02:44;;;;;;;2.30;2.00;;;;;;;6.11;91.36;98376.77;221661;1276;25317;-73
2023/02/19 10:07:50;;;;;;;2.70;1.90;;;;;;;6.06;91.50;98388.73;221706;1276;22537;-72
2023/02/19 10:12:55;;;;;;;3.10;2.10;;;;;;;6.02;91.60;98396.88;221749;1276;25375;-72
2023/02/19 10:17:57;;;;;;;3.80;2.00;;;;;;;6.02;91.68;98399.59;221674;1276;22597;-72
2023/02/19 10:23:06;;;;;;;3.90;2.40;;;;;;;6.04;91.72;98401.14;221684;1276;22543;-72
2023/02/19 10:28:22;;;;;;;3.20;2.90;;;;;;;5.89;90.89;98425.02;221795;1273;24277;-72
2023/02/19 10:33:24;;;;;;;3.20;2.30;;;;;;;5.78;90.80;98431.80;221546;1276;22547;-72
2023/02/19 10:38:37;;;;;;;2.70;2.00;;;;;;;5.70;90.47;98438.19;221772;1270;22663;-72
2023/02/19 10:43:44;;;;;;;4.30;3.50;;;;;;;5.64;90.65;98440.38;221795;1270;23412;-72
2023/02/19 10:48:59;;;;;;;4.30;3.10;;;;;;;5.60;90.68;98442.98;221881;1269;22639;-72
2023/02/19 10:54:27;;;;;;;3.50;3.00;;;;;;;5.52;90.44;98456.12;221943;1276;23211;-73
2023/02/19 10:59:57;;;;;;;2.10;1.90;;;;;;;5.50;90.72;98467.98;221851;1276;22542;-73
2023/02/19 11:05:15;;;;;;;2.30;1.90;;;;;;;5.67;90.99;98472.98;221932;1264;25316;-73
2023/02/19 11:10:38;;;;;;;1.90;1.60;;;;;;;5.83;90.64;98484.88;221783;1276;23284;-73
2023/02/19 11:15:42;;;;;;;1.90;1.40;;;;;;;5.83;89.78;98495.41;221706;1276;158350;-72
2023/02/19 11:20:59;;;;;;;2.50;1.30;;;;;;;5.67;89.66;98499.00;221752;1276;22587;-72
2023/02/19 11:26:05;;;;;;;0.90;0.80;;;;;;;5.60;89.54;98504.70;221776;1276;22524;-73
2023/02/19 11:31:22;;;;;;;1.40;1.10;;;;;;;5.49;89.22;98509.31;221760;1273;22547;-72
2023/02/19 11:36:28;;;;;;;1.20;1.10;;;;;;;5.53;89.25;98525.19;221711;1274;22663;-72
2023/02/19 11:41:57;;;;;;;1.60;1.30;;;;;;;5.55;89.22;98534.16;221836;1273;25509;-72
2023/02/19 11:47:12;;;;;;;1.70;1.60;;;;;;;5.46;89.11;98544.95;221710;1273;24760;-73
2023/02/19 11:52:27;;;;;;;1.80;1.30;;;;;;;5.33;88.79;98559.88;221692;1273;23307;-72
2023/02/19 11:57:40;;;;;;;2.40;1.60;;;;;;;5.23;88.60;98560.04;221712;1276;25477;-72
2023/02/19 12:03:05;;;;;;;2.60;2.10;;;;;;;5.22;88.48;98570.83;221743;1274;25316;-72
2023/02/19 12:08:34;;;;;;;2.70;2.20;;;;;;;5.10;88.51;98582.02;221780;1273;22658;-73
2023/02/19 12:13:58;;;;;;;3.70;2.40;;;;;;;5.05;88.58;98588.14;221764;1271;22657;-72
2023/02/19 12:19:26;;;;;;;3.70;3.10;;;;;;;5.00;88.61;98585.23;221793;1271;22566;-71
2023/02/19 12:25:05;;;;;;;2.40;2.00;;;;;;;4.88;88.45;98599.64;221804;1270;25355;-72
2023/02/19 12:30:16;;;;;;;2.90;2.30;;;;;;;4.64;87.80;98618.58;221765;1270;22501;-72
2023/02/19 12:35:42;;;;;;;3.40;3.10;;;;;;;4.43;88.09;98628.30;221878;1268;23806;-72
2023/02/19 12:40:50;;;;;;;3.00;1.60;;;;;;;4.34;88.12;98633.58;221802;1273;22731;-73
2023/02/19 12:45:57;;;;;;;1.60;1.20;;;;;;;4.22;87.73;98645.96;221805;1269;23171;-72
2023/02/19 12:51:22;;;;;;;1.90;1.30;;;;;;;4.10;87.54;98652.70;221847;1272;22550;-72
2023/02/19 12:56:52;;;;;;;1.80;1.20;;;;;;;3.93;87.28;98657.84;221739;1270;24189;-72
2023/02/19 13:02:06;;;;;;;;;;;;;;;3.82;87.27;98664.50;221744;1276;25679;-71
2023/02/19 13:07:32;;;;;;;4.00;2.00;;;;;;;3.75;86.88;98664.27;221811;1268;25253;-72
2023/02/19 13:12:43;;;;;;;3.40;1.40;;;;;;;3.81;87.12;98674.35;221644;1273;24414;-72
2023/02/19 13:17:50;;;;;;;3.40;1.00;;;;;;;3.88;86.75;98683.91;221694;1276;22534;-71
2023/02/19 13:29:05;;;;;;;3.20;1.50;;;;;;;3.82;86.23;98699.18;221746;1272;26527;-72
2023/02/19 13:34:21;;;;;;;5.00;1.90;;;;;;;3.76;85.96;98707.79;222022;1268;22719;-73
2023/02/19 13:39:24;;;;;;;3.30;2.10;;;;;;;3.71;86.14;98716.14;221705;1274;22588;-73
2023/02/19 13:44:29;;;;;;;4.40;2.30;;;;;;;3.66;86.10;98727.21;221543;1276;24393;-72
2023/02/19 13:49:34;;;;;;;3.70;2.30;;;;;;;3.62;86.26;98736.60;221610;1273;22572;-71
2023/02/19 13:54:39;;;;;;;4.30;2.60;;;;;;;3.57;86.23;98743.91;221714;1262;24203;-72
2023/02/19 13:59:44;;;;;;;5.50;2.90;;;;;;;3.48;86.58;98745.63;221590;1276;25376;-72
2023/02/19 14:04:50;;;;;;;3.80;2.90;;;;;;;3.39;86.69;98757.81;221603;1274;22641;-73
2023/02/19 14:09:53;;;;;;;6.50;3.00;;;;;;;3.35;87.00;98753.82;221779;1270;22567;-72
2023/02/19 14:15:40;;;;;;;5.80;3.10;;;;;;;3.45;87.16;98760.70;221795;1270;23218;-72
2023/02/19 14:20:44;;;;;;;4.10;2.40;;;;;;;3.62;87.05;98766.45;221703;1276;22556;-72
2023/02/19 14:26:00;;;;;;;3.90;2.60;;;;;;;3.74;86.53;98777.44;221671;1276;22722;-73
2023/02/19 14:31:10;;;;;;;2.80;2.00;;;;;;;3.82;86.12;98793.56;221677;1274;24377;-75
2023/02/19 14:36:19;;;;;;;4.10;2.40;;;;;;;3.82;85.29;98798.98;221805;1273;22533;-73
2023/02/19 14:41:23;;;;;;;4.10;2.10;;;;;;;3.75;84.92;98800.73;221833;1276;23886;-73
2023/02/19 14:46:41;;;;;;;2.50;1.80;;;;;;;3.69;84.41;98812.07;221655;1275;24388;-72
2023/02/19 14:51:50;;;;;;;3.20;2.00;;;;;;;3.66;84.14;98818.95;221731;1253;22532;-73
2023/02/19 14:56:53;;;;;;;4.40;2.20;;;;;;;3.63;84.19;98817.36;221602;1276;22535;-73
2023/02/19 15:02:14;;;;;;;5.40;2.50;;;;;;;3.58;84.15;98816.28;221766;1260;22658;-73
2023/02/19 15:07:33;;;;;;;4.50;2.00;;;;;;;3.51;84.18;98818.98;221765;1276;22534;-71
2023/02/19 15:13:00;;;;;;;6.50;3.10;;;;;;;3.46;84.32;98827.45;221579;1276;22548;-74
2023/02/19 15:18:04;;;;;;;5.00;2.40;;;;;;;3.41;84.27;98843.05;221732;1276;25352;-71
2023/02/19 15:23:06;;;;;;;4.80;2.10;;;;;;;3.39;84.28;98839.93;221792;1270;22580;-72
2023/02/19 15:28:25;;;;;;;3.80;2.10;;;;;;;3.39;83.75;98848.38;221672;1275;25100;-73
2023/02/19 15:33:28;;;;;;;4.80;2.00;;;;;;;3.35;83.18;98851.42;221828;1276;22568;-72
2023/02/19 15:38:32;;;;;;;4.50;2.20;;;;;;;3.30;82.98;98864.78;221854;1276;22576;-74
2023/02/19 15:43:48;;;;;;;4.80;2.00;;;;;;;3.22;82.61;98875.79;221902;1268;22632;-73
2023/02/19 15:49:01;;;;;;;3.80;2.00;;;;;;;3.14;82.16;98897.90;221813;1252;25401;-73
2023/02/19 15:54:46;;;;;;;6.90;2.80;;;;;;;3.09;82.19;98901.17;221762;1276;22530;-72
2023/02/19 16:00:12;;;;;;;6.70;3.00;;;;;;;3.03;82.08;98907.06;221751;1274;23343;-74
2023/02/19 16:05:26;;;;;;;5.60;2.50;;;;;;;2.96;81.95;98923.41;221815;1276;25518;-72
2023/02/19 16:10:31;;;;;;;5.50;3.20;;;;;;;2.88;81.87;98933.51;221571;1276;22554;-71
2023/02/19 16:15:38;;;;;;;4.60;2.80;;;;;;;2.78;81.88;98939.59;221693;1274;24241;-73
2023/02/19 16:20:46;;;;;;;5.00;2.80;;;;;;;2.67;81.81;98951.02;221785;1274;22547;-74
2023/02/19 16:26:00;;;;;;;5.20;2.70;;;;;;;2.55;82.20;98955.59;221834;1268;22523;-73
2023/02/19 16:31:03;;;;;;;8.50;3.90;;;;;;;2.50;82.38;98975.63;221810;1271;22557;-72
2023/02/19 16:36:41;;;;;;;7.00;4.10;;;;;;;2.49;82.41;98984.44;221656;1275;22560;-73
2023/02/19 16:41:46;;;;;;;9.30;3.60;;;;;;;2.48;82.43;99004.83;221724;1260;23361;-73
2023/02/19 16:46:50;;;;;;;5.20;2.70;;;;;;;2.49;82.38;99018.66;221734;1275;22582;-73
2023/02/19 16:51:53;;;;;;;9.50;3.90;;;;;;;2.51;82.62;99025.77;221859;1271;23101;-73
2023/02/19 16:56:55;;;;;;;9.10;3.60;;;;;;;2.54;82.51;99032.49;221686;1269;23980;-73
2023/02/19 17:02:04;;;;;;;6.20;3.30;;;;;;;2.55;82.57;99050.65;221521;1276;22595;-72
2023/02/19 17:07:08;;;;;;;8.50;4.60;;;;;;;2.57;82.50;99055.88;221811;1274;24289;-72
2023/02/19 17:12:13;;;;;;;11.60;4.20;;;;;;;2.59;82.44;99066.67;221537;1274;25244;-73
2023/02/19 17:17:15;;;;;;;12.30;5.30;;;;;;;2.60;82.80;99073.34;221779;1269;22532;-72
2023/02/19 17:22:17;;;;;;;11.10;6.00;;;;;;;2.62;82.82;99071.45;221758;1272;24204;-72
2023/02/19 17:27:20;;;;;;;13.40;5.70;;;;;;;2.63;83.08;99079.17;221674;1276;24241;-72
2023/02/19 17:32:22;;;;;;;9.90;4.20;;;;;;;2.63;82.81;99086.64;221750;1274;22520;-73
2023/02/19 17:37:25;;;;;;;12.10;6.80;;;;;;;2.62;82.79;99101.55;221726;1276;22540;-73
2023/02/19 17:42:27;;;;;;;10.90;5.80;;;;;;;2.59;83.01;99116.35;221691;1275;22615;-71
2023/02/19 17:47:29;;;;;;;11.10;5.20;;;;;;;2.56;82.84;99121.48;221569;1273;22552;-72
2023/02/19 17:52:32;;;;;;;10.80;5.60;;;;;;;2.50;82.63;99123.02;221714;1276;22669;-73
2023/02/19 17:57:35;;;;;;;15.10;7.80;;;;;;;2.39;82.17;99128.27;221869;1269;24185;-73
2023/02/19 18:02:38;;;;;;;12.90;6.50;;;;;;;2.24;82.34;99133.04;221664;1276;22676;-73
2023/02/19 18:07:50;;;;;;;10.50;5.90;;;;;;;2.08;82.22;99142.00;221757;1276;22551;-71
2023/02/19 18:12:54;;;;;;;12.00;5.30;;;;;;;1.92;82.39;99154.08;221708;1274;25348;-73
2023/02/19 18:17:59;;;;;;;11.70;6.30;;;;;;;1.77;82.49;99156.21;221667;1276;22887;-73
2023/02/19 18:23:01;;;;;;;12.70;5.90;;;;;;;1.63;82.64;99168.09;221747;1274;22563;-73
2023/02/19 18:28:04;;;;;;;15.10;6.70;;;;;;;1.51;83.06;99168.02;221611;1275;22539;-72
2023/02/19 18:33:09;;;;;;;14.90;6.80;;;;;;;1.40;83.13;99173.36;221622;1275;25374;-73
2023/02/19 18:38:12;;;;;;;16.60;8.30;;;;;;;1.30;83.03;99184.04;221635;1274;22540;-73
2023/02/19 18:43:14;;;;;;;19.10;8.90;;;;;;;1.18;83.34;99188.80;221559;1276;22622;-73
2023/02/19 18:48:18;;;;;;;18.50;10.40;;;;;;;1.07;83.49;99192.80;221808;1276;22529;-72
2023/02/19 18:53:20;;;;;;;20.90;10.00;;;;;;;0.95;83.67;99200.98;221598;1274;22546;-72
2023/02/19 18:58:27;;;;;;;20.30;10.60;;;;;;;0.84;83.75;99206.55;221680;1275;22499;-73
2023/02/19 19:03:30;;;;;;;18.30;10.00;;;;;;;0.73;84.09;99211.87;221708;1276;22559;-72
2023/02/19 19:08:33;;;;;;;22.40;12.30;;;;;;;0.64;83.71;99216.87;221982;1274;22541;-72
2023/02/19 19:13:36;;;;;;;23.90;14.70;;;;;;;0.55;84.23;99222.20;221687;1276;25378;-74
2023/02/19 19:18:38;;;;;;;18.20;10.60;;;;;;;0.46;84.30;99233.13;221672;1276;22550;-74
2023/02/19 19:23:41;;;;;;;17.50;8.30;;;;;;;0.37;84.55;99228.06;221721;1274;22707;-72
2023/02/19 19:28:43;;;;;;;22.00;13.30;;;;;;;0.30;84.81;99232.08;221753;1275;22606;-73
2023/02/19 19:33:47;;;;;;;20.50;13.50;;;;;;;0.23;84.82;99242.98;221800;1273;24292;-73
2023/02/19 19:38:49;;;;;;;24.30;15.10;;;;;;;0.17;84.89;99251.88;221627;1274;23275;-73
2023/02/19 19:43:51;;;;;;;26.60;14.30;;;;;;;0.14;85.28;99247.43;221662;1274;24280;-73
2023/02/19 19:48:53;;;;;;;26.00;16.10;;;;;;;0.13;85.12;99247.30;221784;1276;24918;-74
2023/02/19 19:53:57;;;;;;;22.50;13.60;;;;;;;0.16;85.43;99253.34;221816;1274;22741;-72
2023/02/19 19:58:59;;;;;;;18.00;11.20;;;;;;;0.22;85.59;99249.11;221830;1273;22661;-73
2023/02/19 20:04:04;;;;;;;16.10;10.10;;;;;;;0.27;85.74;99250.79;221759;1274;22545;-73
2023/02/19 20:09:09;;;;;;;19.10;12.20;;;;;;;0.36;85.71;99250.34;221802;1273;23384;-74
2023/02/19 20:14:12;;;;;;;20.20;13.00;;;;;;;0.43;85.80;99252.10;221719;1274;24395;-72
2023/02/19 20:19:16;;;;;;;15.10;10.00;;;;;;;0.51;85.88;99258.60;221749;1276;25243;-74
2023/02/19 20:24:23;;;;;;;24.60;13.70;;;;;;;0.57;85.66;99263.55;221679;1276;22672;-73
2023/02/19 20:29:27;;;;;;;17.60;11.60;;;;;;;0.63;85.84;99268.06;221797;1275;24428;-73
2023/02/19 20:34:30;;;;;;;21.90;12.00;;;;;;;0.69;85.79;99274.22;221986;1276;25242;-73
2023/02/19 20:39:34;;;;;;;16.40;10.70;;;;;;;0.74;85.70;99284.30;221804;1262;22611;-72
2023/02/19 20:44:36;;;;;;;17.30;9.10;;;;;;;0.77;85.63;99289.59;221680;1253;24216;-72
2023/02/19 20:49:44;;;;;;;16.90;11.10;;;;;;;0.79;85.89;99288.71;221848;1270;22549;-73
2023/02/19 20:54:46;;;;;;;17.30;10.40;;;;;;;0.82;85.75;99290.73;221876;1276;23570;-74
2023/02/19 20:59:49;;;;;;;19.90;12.10;;;;;;;0.86;85.76;99297.09;221706;1274;22534;-73
2023/02/19 21:04:51;;;;;;;25.40;11.20;;;;;;;0.88;85.81;99303.34;221747;1276;25367;-75
2023/02/19 21:09:56;;;;;;;21.00;12.70;;;;;;;0.89;85.72;99312.38;221853;1276;25358;-73
2023/02/19 21:15:03;;;;;;;24.00;12.80;;;;;;;0.91;85.82;99329.77;221766;1276;22529;-74
2023/02/19 21:20:07;;;;;;;20.60;13.50;;;;;;;0.92;86.15;99337.55;221899;1276;22942;-75
2023/02/19 21:25:09;;;;;;;24.30;12.50;;;;;;;0.91;85.76;99338.95;221650;1276;22987;-73
2023/02/19 21:30:11;;;;;;;24.30;13.00;;;;;;;0.89;86.05;99347.14;221760;1276;22540;-73
2023/02/19 21:35:14;;;;;;;21.50;13.00;;;;;;;0.82;85.90;99352.30;221730;1274;22682;-73
2023/02/19 21:40:20;;;;;;;23.60;12.30;;;;;;;0.78;85.84;99355.18;221729;1275;25292;-73
2023/02/19 21:45:41;;;;;;;22.00;13.30;;;;;;;0.78;86.20;99367.18;221136;1280;24409;-73
2023/02/19 21:50:44;;;;;;;21.80;12.90;;;;;;;0.77;86.27;99366.00;221190;1281;22543;-73
2023/02/19 21:55:51;;;;;;;20.20;12.40;;;;;;;0.73;86.01;99371.72;220998;1274;22854;-74
2023/02/19 22:01:00;;;;;;;23.90;13.30;;;;;;;0.67;85.95;99374.03;221056;1281;22574;-73
2023/02/19 22:06:03;;;;;;;19.30;12.50;;;;;;;0.62;86.24;99377.35;221016;1274;22569;-73
2023/02/19 22:11:06;;;;;;;22.40;12.70;;;;;;;0.56;86.34;99374.69;221746;1276;23016;-72
2023/02/19 22:16:08;;;;;;;26.80;14.10;;;;;;;0.49;86.00;99380.17;221690;1276;22670;-72
2023/02/19 22:21:11;;;;;;;27.00;13.50;;;;;;;0.43;86.78;99383.75;221830;1276;24323;-75
2023/02/19 22:26:17;;;;;;;24.20;13.60;;;;;;;0.38;86.53;99390.52;221749;1259;24114;-73
2023/02/19 22:31:23;;;;;;;25.00;13.10;;;;;;;0.31;86.31;99389.92;221824;1276;22535;-73
2023/02/19 22:36:29;;;;;;;28.00;15.10;;;;;;;0.25;86.43;99397.67;221848;1274;22595;-74
2023/02/19 22:41:32;;;;;;;27.40;14.70;;;;;;;0.19;86.76;99404.66;221692;1274;26904;-74
2023/02/19 22:46:35;;;;;;;28.20;14.90;;;;;;;0.13;86.89;99402.36;221863;1276;22553;-73
2023/02/19 22:51:37;;;;;;;27.70;14.80;;;;;;;0.06;86.79;99406.95;221744;1274;23664;-73
2023/02/19 22:56:40;;;;;;;26.50;14.80;;;;;;;0.00;86.95;99419.12;221901;1274;22703;-72
2023/02/19 23:01:42;;;;;;;22.80;13.80;;;;;;;-0.01;86.97;99425.67;221756;1276;25479;-75
2023/02/19 23:06:44;;;;;;;25.30;14.90;;;;;;;-0.02;86.93;99429.19;221627;1276;22537;-73
2023/02/19 23:11:47;;;;;;;26.00;16.30;;;;;;;-0.03;87.32;99436.86;221648;1274;239795;-73
2023/02/19 23:16:49;;;;;;;27.20;18.20;;;;;;;-0.03;87.56;99438.75;221653;1276;24150;-72
2023/02/19 23:22:06;;;;;;;28.10;16.70;;;;;;;0.00;87.18;99443.20;221744;1276;25374;-74
2023/02/19 23:27:09;;;;;;;31.60;19.20;;;;;;;0.05;87.47;99446.34;221822;1274;25162;-74
2023/02/19 23:32:11;;;;;;;33.60;19.40;;;;;;;0.09;87.31;99443.13;221808;1273;24245;-73
2023/02/19 23:37:13;;;;;;;34.00;19.20;;;;;;;0.14;87.35;99442.30;221688;1276;25294;-74
2023/02/19 23:42:19;;;;;;;29.70;18.10;;;;;;;0.18;87.38;99440.27;221883;1276;24314;-73
2023/02/19 23:47:44;;;;;;;28.50;17.40;;;;;;;0.21;87.17;99436.20;221893;1276;24144;-72
2023/02/19 23:52:47;;;;;;;27.60;16.70;;;;;;;0.25;87.14;99437.88;221741;1259;22650;-74
2023/02/19 23:57:50;;;;;;;21.20;14.00;;;;;;;0.27;87.22;99427.86;221698;1275;22753;-73
